createdAt,value
2022-10-01T00:01:18.663Z,99994.38
2022-10-01T00:03:47.577Z,99970.22
2022-10-01T00:06:20.907Z,99986.41
2022-10-01T00:08:50.275Z,99982.09
2022-10-01T00:11:22.497Z,99969.50
2022-10-01T00:13:50.455Z,99964.94
2022-10-01T00:16:21.925Z,99958.81
2022-10-01T00:18:49.913Z,99953.16
2022-10-01T00:21:27.220Z,99954.84
2022-10-01T00:24:05.255Z,99947.75
2022-10-01T00:26:37.688Z,99946.03
2022-10-01T00:29:13.053Z,99938.66
2022-10-01T00:31:40.352Z,99932.28
2022-10-01T00:34:07.292Z,99942.09
2022-10-01T00:36:34.846Z,99927.63
2022-10-01T00:39:02.202Z,99925.63
2022-10-01T00:41:33.899Z,99904.75
2022-10-01T00:44:27.874Z,99898.38
2022-10-01T00:47:02.982Z,99918.00
2022-10-01T00:49:36.326Z,99913.56
2022-10-01T00:52:13.190Z,99907.22
2022-10-01T00:54:42.650Z,99909.19
2022-10-01T00:57:12.490Z,99914.59
2022-10-01T00:59:39.446Z,99900.34
2022-10-01T01:02:06.388Z,99896.78
2022-10-01T01:04:33.223Z,99897.19
2022-10-01T01:07:04.128Z,99890.31
2022-10-01T01:09:51.177Z,99887.34
2022-10-01T01:13:05.352Z,99895.72
2022-10-01T01:15:53.968Z,99884.34
2022-10-01T01:18:49.403Z,99861.88
2022-10-01T01:21:33.726Z,99853.03
2022-10-01T01:24:05.527Z,99847.91
2022-10-01T01:27:13.729Z,99796.16
2022-10-01T01:30:17.923Z,99748.38
2022-10-01T01:33:03.254Z,99769.69
2022-10-01T01:35:55.814Z,99793.00
2022-10-01T01:38:34.473Z,99798.41
2022-10-01T01:41:06.028Z,99831.38
2022-10-01T01:43:40.788Z,99815.78
2022-10-01T01:46:11.705Z,99808.66
2022-10-01T01:48:41.848Z,99793.31
2022-10-01T01:51:16.866Z,99806.69
2022-10-01T01:53:43.705Z,99803.00
2022-10-01T01:56:11.232Z,99781.41
2022-10-01T01:58:39.522Z,99780.28
2022-10-01T02:01:06.355Z,99778.47
2022-10-01T02:03:35.502Z,99785.56
2022-10-01T02:06:31.269Z,99770.06
2022-10-01T02:09:25.521Z,99766.13
2022-10-01T02:12:19.710Z,99766.13
2022-10-01T02:14:58.593Z,99766.13
2022-10-01T02:17:54.719Z,99761.72
2022-10-01T02:20:36.103Z,99754.75
2022-10-01T02:23:19.734Z,99756.56
2022-10-01T02:25:58.364Z,99748.47
2022-10-01T02:28:26.120Z,99752.19
2022-10-01T02:30:55.754Z,99743.06
2022-10-01T02:33:30.162Z,99730.59
2022-10-01T02:36:00.946Z,99737.69
2022-10-01T02:38:29.545Z,99732.28
2022-10-01T02:41:02.276Z,99719.50
2022-10-01T02:43:42.802Z,99715.69
2022-10-01T02:46:34.540Z,99714.56
2022-10-01T02:49:02.868Z,99710.41
2022-10-01T02:51:53.376Z,99717.38
2022-10-01T02:54:34.824Z,99715.81
2022-10-01T02:57:20.030Z,99703.28
2022-10-01T02:59:47.090Z,99706.47
2022-10-01T03:02:13.962Z,99712.56
2022-10-01T03:04:40.821Z,99721.56
2022-10-01T03:07:07.608Z,99718.69
2022-10-01T03:09:36.800Z,99721.25
2022-10-01T03:12:04.249Z,99701.25
2022-10-01T03:14:32.330Z,99723.00
2022-10-01T03:16:59.065Z,99702.22
2022-10-01T03:19:25.762Z,99709.34
2022-10-01T03:21:52.533Z,99715.34
2022-10-01T03:24:19.243Z,99718.88
2022-10-01T03:26:45.995Z,99706.81
2022-10-01T03:29:13.303Z,99692.03
2022-10-01T03:31:40.138Z,99698.31
2022-10-01T03:34:07.183Z,99711.66
2022-10-01T03:36:33.999Z,99703.44
2022-10-01T03:39:00.732Z,99691.53
2022-10-01T03:41:27.461Z,99681.44
2022-10-01T03:43:58.300Z,99700.91
2022-10-01T03:46:26.459Z,99704.47
2022-10-01T03:48:53.182Z,99714.28
2022-10-01T03:51:20.763Z,99705.63
2022-10-01T03:53:48.047Z,99705.50
2022-10-01T03:56:16.415Z,99707.78
2022-10-01T03:58:43.154Z,99709.22
2022-10-01T04:01:09.954Z,99712.34
2022-10-01T04:03:36.745Z,99708.66
2022-10-01T04:06:03.675Z,99716.34
2022-10-01T04:08:30.469Z,99713.25
2022-10-01T04:10:57.216Z,99717.25
2022-10-01T04:13:24.177Z,99708.72
2022-10-01T04:15:50.928Z,99708.44
2022-10-01T04:18:21.523Z,99715.13
2022-10-01T04:20:48.628Z,99714.72
2022-10-01T04:23:15.701Z,99711.00
2022-10-01T04:25:42.561Z,99724.97
2022-10-01T04:28:12.999Z,99703.91
2022-10-01T04:30:43.117Z,99710.72
2022-10-01T04:33:16.328Z,99720.44
2022-10-01T04:35:44.303Z,99720.16
2022-10-01T04:38:16.979Z,99719.84
2022-10-01T04:40:43.975Z,99727.00
2022-10-01T04:43:13.260Z,99731.81
2022-10-01T04:45:40.038Z,99728.97
2022-10-01T04:48:06.802Z,99730.53
2022-10-01T04:50:33.592Z,99742.38
2022-10-01T04:53:00.365Z,99749.47
2022-10-01T04:55:27.290Z,99740.38
2022-10-01T04:57:54.225Z,99744.06
2022-10-01T05:00:26.583Z,99754.19
2022-10-01T05:02:54.416Z,99761.44
2022-10-01T05:05:24.678Z,99774.00
2022-10-01T05:07:51.466Z,99759.31
2022-10-01T05:10:21.557Z,99759.03
2022-10-01T05:12:49.702Z,99757.19
2022-10-01T05:15:17.608Z,99763.44
2022-10-01T05:17:45.177Z,99774.13
2022-10-01T05:20:21.474Z,99770.03
2022-10-01T05:22:49.580Z,99784.25
2022-10-01T05:25:18.084Z,99774.00
2022-10-01T05:27:45.489Z,99770.31
2022-10-01T05:30:18.646Z,99780.00
2022-10-01T05:32:55.386Z,99788.81
2022-10-01T05:35:22.262Z,99792.97
2022-10-01T05:37:56.510Z,99790.84
2022-10-01T05:40:28.419Z,99793.38
2022-10-01T05:42:58.428Z,99794.84
2022-10-01T05:45:28.669Z,99803.66
2022-10-01T05:48:04.865Z,99814.19
2022-10-01T05:50:35.600Z,99812.94
2022-10-01T05:53:02.611Z,99816.47
2022-10-01T05:55:34.842Z,99826.03
2022-10-01T05:58:07.714Z,99823.88
2022-10-01T06:00:35.890Z,99841.53
2022-10-01T06:03:05.237Z,99825.03
2022-10-01T06:05:34.959Z,99831.84
2022-10-01T06:08:05.053Z,99821.91
2022-10-01T06:10:31.943Z,99831.56
2022-10-01T06:13:05.449Z,99831.31
2022-10-01T06:15:37.808Z,99843.81
2022-10-01T06:18:10.420Z,99838.13
2022-10-01T06:20:38.557Z,99844.97
2022-10-01T06:23:12.062Z,99846.38
2022-10-01T06:25:41.760Z,99852.66
2022-10-01T06:28:11.744Z,99852.50
2022-10-01T06:30:40.110Z,99861.50
2022-10-01T06:33:12.292Z,99861.75
2022-10-01T06:35:48.622Z,99858.50
2022-10-01T06:38:17.366Z,99852.06
2022-10-01T06:40:44.440Z,99858.19
2022-10-01T06:43:11.199Z,99855.19
2022-10-01T06:45:43.617Z,99864.03
2022-10-01T06:48:15.598Z,99852.75
2022-10-01T06:50:45.572Z,99863.56
2022-10-01T06:53:15.217Z,99861.13
2022-10-01T06:55:42.386Z,99865.69
2022-10-01T06:58:15.346Z,99864.00
2022-10-01T07:00:43.860Z,99872.84
2022-10-01T07:03:18.270Z,99876.94
2022-10-01T07:05:45.848Z,99877.94
2022-10-01T07:08:13.095Z,99877.91
2022-10-01T07:10:41.046Z,99882.47
2022-10-01T07:13:18.019Z,99887.31
2022-10-01T07:15:45.999Z,99892.81
2022-10-01T07:18:13.768Z,99895.47
2022-10-01T07:20:41.001Z,99894.84
2022-10-01T07:23:13.730Z,99904.00
2022-10-01T07:25:42.270Z,99905.72
2022-10-01T07:28:16.668Z,99909.13
2022-10-01T07:30:58.483Z,99906.03
2022-10-01T07:33:25.633Z,99913.16
2022-10-01T07:35:52.473Z,99918.00
2022-10-01T07:38:19.265Z,99917.66
2022-10-01T07:40:52.174Z,99924.41
2022-10-01T07:43:19.141Z,99919.78
2022-10-01T07:45:50.080Z,99929.19
2022-10-01T07:48:17.319Z,99920.88
2022-10-01T07:50:45.292Z,99923.59
2022-10-01T07:53:13.800Z,99922.91
2022-10-01T07:55:40.630Z,99937.75
2022-10-01T07:58:08.185Z,99946.25
2022-10-01T08:00:35.420Z,99945.84
2022-10-01T08:03:02.344Z,99947.84
2022-10-01T08:05:35.792Z,99953.88
2022-10-01T08:08:06.999Z,99962.78
2022-10-01T08:10:36.443Z,99953.38
2022-10-01T08:13:08.794Z,99955.66
2022-10-01T08:15:36.217Z,99964.13
2022-10-01T08:18:04.751Z,99974.25
2022-10-01T08:20:32.053Z,99981.41
2022-10-01T08:23:05.986Z,99983.97
2022-10-01T08:25:33.536Z,99975.97
2022-10-01T08:28:00.721Z,99985.44
2022-10-01T08:30:28.833Z,99996.00
2022-10-01T08:33:00.630Z,99997.75
2022-10-01T08:35:28.966Z,99998.34
2022-10-01T08:38:01.445Z,100001.50
2022-10-01T08:40:29.381Z,100010.06
2022-10-01T08:43:24.739Z,100008.34
2022-10-01T08:45:58.212Z,100004.94
2022-10-01T08:48:37.323Z,100013.06
2022-10-01T08:51:29.135Z,100010.94
2022-10-01T08:54:19.859Z,99998.06
2022-10-01T08:56:47.906Z,100005.22
2022-10-01T08:59:36.018Z,100004.38
2022-10-01T09:02:10.505Z,100003.63
2022-10-01T09:04:37.241Z,100008.34
2022-10-01T09:07:21.139Z,100007.38
2022-10-01T09:10:18.229Z,100009.47
2022-10-01T09:13:06.775Z,100017.16
2022-10-01T09:16:07.324Z,100019.69
2022-10-01T09:19:31.687Z,100022.78
2022-10-01T09:22:06.077Z,100024.88
2022-10-01T09:24:54.122Z,100032.13
2022-10-01T09:27:27.342Z,100043.47
2022-10-01T09:30:07.431Z,100042.56
2022-10-01T09:32:53.881Z,100051.97
2022-10-01T09:35:44.136Z,100055.03
2022-10-01T09:38:48.606Z,100055.75
2022-10-01T09:41:16.088Z,100051.81
2022-10-01T09:43:44.538Z,100057.56
2022-10-01T09:46:17.410Z,100053.41
2022-10-01T09:49:13.187Z,100045.94
2022-10-01T09:51:46.226Z,100048.34
2022-10-01T09:54:53.432Z,100056.22
2022-10-01T09:57:31.476Z,100059.00
2022-10-01T10:00:09.793Z,100061.16
2022-10-01T10:02:42.377Z,100063.31
2022-10-01T10:05:19.325Z,100063.06
2022-10-01T10:07:53.317Z,100069.09
2022-10-01T10:10:26.087Z,100069.28
2022-10-01T10:13:23.830Z,100073.06
2022-10-01T10:15:57.831Z,100064.63
2022-10-01T10:18:35.709Z,100076.63
2022-10-01T10:21:16.211Z,100080.59
2022-10-01T10:23:54.717Z,100079.81
2022-10-01T10:26:35.666Z,100089.69
2022-10-01T10:29:05.288Z,100090.78
2022-10-01T10:31:45.243Z,100095.00
2022-10-01T10:34:22.768Z,100086.56
2022-10-01T10:36:58.824Z,100102.66
2022-10-01T10:39:29.417Z,100110.63
2022-10-01T10:41:59.005Z,100113.06
2022-10-01T10:44:36.308Z,100120.94
2022-10-01T10:47:11.785Z,100117.28
2022-10-01T10:50:01.279Z,100131.19
2022-10-01T10:52:33.360Z,100129.66
2022-10-01T10:55:19.059Z,100130.72
2022-10-01T10:57:47.010Z,100136.91
2022-10-01T11:00:17.049Z,100149.63
2022-10-01T11:03:01.563Z,100154.66
2022-10-01T11:05:32.758Z,100155.25
2022-10-01T11:08:17.633Z,100159.72
2022-10-01T11:11:09.885Z,100146.84
2022-10-01T11:13:37.953Z,100164.97
2022-10-01T11:16:24.265Z,100161.28
2022-10-01T11:19:05.798Z,100169.38
2022-10-01T11:21:45.098Z,100167.63
2022-10-01T11:24:51.037Z,100169.34
2022-10-01T11:27:56.452Z,100182.97
2022-10-01T11:30:29.936Z,100190.66
2022-10-01T11:33:31.923Z,100188.13
2022-10-01T11:36:24.984Z,100200.78
2022-10-01T11:39:17.790Z,100198.72
2022-10-01T11:42:00.564Z,100192.53
2022-10-01T11:44:32.597Z,100204.69
2022-10-01T11:47:24.202Z,100205.44
2022-10-01T11:50:14.237Z,100201.06
2022-10-01T11:52:57.022Z,100215.03
2022-10-01T11:55:56.378Z,100220.84
2022-10-01T11:59:02.434Z,100213.47
2022-10-01T12:02:08.193Z,100227.09
2022-10-01T12:04:46.538Z,100246.47
2022-10-01T12:08:14.096Z,100243.38
2022-10-01T12:10:50.160Z,100250.09
2022-10-01T12:13:32.576Z,100254.06
2022-10-01T12:16:11.143Z,100261.09
2022-10-01T12:18:40.617Z,100254.63
2022-10-01T12:21:24.061Z,100262.72
2022-10-01T12:24:00.541Z,100262.19
2022-10-01T12:26:47.317Z,100261.00
2022-10-01T12:29:44.305Z,100270.66
2022-10-01T12:32:40.158Z,100272.94
2022-10-01T12:35:25.922Z,100259.75
2022-10-01T12:38:17.367Z,100273.72
2022-10-01T12:41:22.569Z,100286.34
2022-10-01T12:44:19.882Z,100299.47
2022-10-01T12:47:18.945Z,100289.06
2022-10-01T12:50:18.255Z,100303.28
2022-10-01T12:53:03.132Z,100300.03
2022-10-01T12:56:01.605Z,100291.78
2022-10-01T12:58:47.136Z,100301.22
2022-10-01T13:01:41.058Z,100305.53
2022-10-01T13:04:27.918Z,100302.88
2022-10-01T13:07:03.667Z,100307.59
2022-10-01T13:09:46.594Z,100310.88
2022-10-01T13:13:08.978Z,100316.00
2022-10-01T13:15:47.647Z,100319.06
2022-10-01T13:19:00.428Z,100328.28
2022-10-01T13:22:07.830Z,100335.31
2022-10-01T13:25:10.071Z,100341.91
2022-10-01T13:27:54.809Z,100345.41
2022-10-01T13:30:41.123Z,100346.53
2022-10-01T13:33:32.081Z,100354.81
2022-10-01T13:36:03.374Z,100366.81
2022-10-01T13:38:38.832Z,100374.28
2022-10-01T13:41:22.525Z,100370.16
2022-10-01T13:44:07.875Z,100379.53
2022-10-01T13:46:51.056Z,100372.94
2022-10-01T13:49:30.051Z,100372.06
2022-10-01T13:51:58.964Z,100390.13
2022-10-01T13:54:39.822Z,100384.72
2022-10-01T13:57:37.149Z,100391.88
2022-10-01T14:00:12.662Z,100404.06
2022-10-01T14:02:45.156Z,100413.09
2022-10-01T14:05:17.742Z,100407.78
2022-10-01T14:07:52.006Z,100420.44
2022-10-01T14:10:19.333Z,100417.56
2022-10-01T14:13:06.534Z,100421.34
2022-10-01T14:15:59.867Z,100428.53
2022-10-01T14:18:49.736Z,100437.75
2022-10-01T14:21:43.626Z,100437.16
2022-10-01T14:24:19.314Z,100436.09
2022-10-01T14:27:24.912Z,100437.69
2022-10-01T14:30:11.514Z,100433.69
2022-10-01T14:33:07.656Z,100448.81
2022-10-01T14:35:45.315Z,100454.06
2022-10-01T14:38:18.553Z,100462.13
2022-10-01T14:40:49.764Z,100455.88
2022-10-01T14:43:22.244Z,100458.50
2022-10-01T14:46:01.075Z,100459.38
2022-10-01T14:48:34.956Z,100456.50
2022-10-01T14:51:06.074Z,100465.34
2022-10-01T14:53:37.986Z,100454.25
2022-10-01T14:56:12.146Z,100462.97
2022-10-01T14:58:53.771Z,100471.00
2022-10-01T15:01:24.101Z,100475.97
2022-10-01T15:03:52.514Z,100482.16
2022-10-01T15:06:28.071Z,100476.69
2022-10-01T15:09:08.088Z,100476.84
2022-10-01T15:11:35.113Z,100495.53
2022-10-01T15:14:08.303Z,100484.22
2022-10-01T15:16:37.096Z,100476.69
2022-10-01T15:19:12.097Z,100483.72
2022-10-01T15:21:45.425Z,100492.75
2022-10-01T15:24:46.409Z,100501.69
2022-10-01T15:27:19.334Z,100503.41
2022-10-01T15:29:56.104Z,100504.78
2022-10-01T15:32:25.156Z,100514.38
2022-10-01T15:35:00.636Z,100505.66
2022-10-01T15:37:31.788Z,100518.31
2022-10-01T15:40:00.578Z,100523.66
2022-10-01T15:42:32.782Z,100520.03
2022-10-01T15:45:08.519Z,100521.59
2022-10-01T15:47:40.123Z,100534.06
2022-10-01T15:50:10.022Z,100540.72
2022-10-01T15:53:02.934Z,100547.41
2022-10-01T15:55:33.495Z,100544.81
2022-10-01T15:58:15.189Z,100547.41
2022-10-01T16:01:09.148Z,100540.69
2022-10-01T16:03:49.185Z,100542.50
2022-10-01T16:06:25.691Z,100550.03
2022-10-01T16:09:13.762Z,100563.31
2022-10-01T16:12:19.943Z,100567.59
2022-10-01T16:15:24.359Z,100574.72
2022-10-01T16:18:02.532Z,100571.94
2022-10-01T16:20:50.344Z,100567.78
2022-10-01T16:23:44.804Z,100579.91
2022-10-01T16:26:37.776Z,100580.34
2022-10-01T16:29:23.962Z,100586.22
2022-10-01T16:31:51.630Z,100581.25
2022-10-01T16:34:21.086Z,100593.13
2022-10-01T16:36:48.238Z,100591.75
2022-10-01T16:39:15.614Z,100592.13
2022-10-01T16:42:01.474Z,100602.22
2022-10-01T16:44:39.313Z,100613.03
2022-10-01T16:47:06.050Z,100612.03
2022-10-01T16:49:33.313Z,100618.41
2022-10-01T16:52:00.124Z,100623.56
2022-10-01T16:54:27.260Z,100636.25
2022-10-01T16:56:55.347Z,100637.13
2022-10-01T16:59:23.844Z,100642.56
2022-10-01T17:01:54.884Z,100645.03
2022-10-01T17:04:23.529Z,100644.88
2022-10-01T17:06:50.606Z,100647.44
2022-10-01T17:09:17.355Z,100649.03
2022-10-01T17:11:44.452Z,100664.94
2022-10-01T17:14:21.095Z,100661.06
2022-10-01T17:16:50.466Z,100674.38
2022-10-01T17:19:18.419Z,100668.34
2022-10-01T17:21:46.117Z,100676.94
2022-10-01T17:24:13.451Z,100680.97
2022-10-01T17:26:43.151Z,100685.81
2022-10-01T17:29:10.165Z,100686.22
2022-10-01T17:31:40.753Z,100687.66
2022-10-01T17:34:08.300Z,100690.94
2022-10-01T17:36:35.510Z,100701.50
2022-10-01T17:39:02.545Z,100702.94
2022-10-01T17:41:29.358Z,100708.94
2022-10-01T17:43:57.445Z,100721.19
2022-10-01T17:46:24.241Z,100720.91
2022-10-01T17:48:50.988Z,100720.56
2022-10-01T17:51:17.895Z,100725.41
2022-10-01T17:53:44.647Z,100726.44
2022-10-01T17:56:18.113Z,100729.41
2022-10-01T17:58:46.321Z,100731.41
2022-10-01T18:01:19.455Z,100727.97
2022-10-01T18:03:46.276Z,100739.91
2022-10-01T18:06:16.305Z,100744.75
2022-10-01T18:08:58.934Z,100747.91
2022-10-01T18:11:28.511Z,100756.44
2022-10-01T18:13:55.513Z,100750.56
2022-10-01T18:16:23.462Z,100754.53
2022-10-01T18:21:47.549Z,100763.81
2022-10-01T18:24:15.548Z,100768.66
2022-10-01T18:26:42.330Z,100769.78
2022-10-01T18:29:16.870Z,100777.06
2022-10-01T18:31:46.518Z,100775.22
2022-10-01T18:34:47.767Z,100784.94
2022-10-01T18:37:43.870Z,100782.94
2022-10-01T18:40:16.149Z,100792.69
2022-10-01T18:43:04.259Z,100798.72
2022-10-01T18:45:36.661Z,100805.75
2022-10-01T18:48:44.685Z,100802.03
2022-10-01T18:52:05.221Z,100808.59
2022-10-01T18:54:52.786Z,100808.41
2022-10-01T18:58:19.280Z,100811.63
2022-10-01T19:01:37.703Z,100817.84
2022-10-01T19:04:43.866Z,100819.13
2022-10-01T19:07:54.829Z,100820.50
2022-10-01T19:10:39.468Z,100830.75
2022-10-01T19:13:36.549Z,100837.44
2022-10-01T19:16:19.786Z,100837.94
2022-10-01T19:19:28.179Z,100839.19
2022-10-01T19:22:23.598Z,100850.56
2022-10-01T19:25:13.873Z,100850.19
2022-10-01T19:28:33.453Z,100845.41
2022-10-01T19:31:22.385Z,100857.88
2022-10-01T19:34:00.405Z,100861.09
2022-10-01T19:36:35.344Z,100862.47
2022-10-01T19:39:11.832Z,100857.53
2022-10-01T19:41:55.189Z,100862.44
2022-10-01T19:45:04.659Z,100860.22
2022-10-01T19:47:40.153Z,100866.16
2022-10-01T19:50:44.229Z,100866.38
2022-10-01T19:53:32.971Z,100870.44
2022-10-01T19:56:02.385Z,100872.53
2022-10-01T19:58:30.626Z,100869.56
2022-10-01T20:01:02.529Z,100869.81
2022-10-01T20:03:43.620Z,100874.50
2022-10-01T20:06:28.601Z,100886.56
2022-10-01T20:09:17.125Z,100880.50
2022-10-01T20:12:16.198Z,100890.72
2022-10-01T20:15:10.525Z,100895.56
2022-10-01T20:18:00.612Z,100890.38
2022-10-01T20:21:08.374Z,100900.56
2022-10-01T20:24:10.008Z,100903.63
2022-10-01T20:26:47.658Z,100899.09
2022-10-01T20:29:43.560Z,100894.41
2022-10-01T20:32:31.838Z,100906.00
2022-10-01T20:35:16.183Z,100901.84
2022-10-01T20:38:20.584Z,100905.78
2022-10-01T20:41:00.217Z,100917.16
2022-10-01T20:43:49.183Z,100917.88
2022-10-01T20:46:38.948Z,100918.84
2022-10-01T20:49:24.792Z,100925.28
2022-10-01T20:52:02.201Z,100918.00
2022-10-01T20:54:43.784Z,100921.06
2022-10-01T20:57:44.576Z,100931.28
2022-10-01T21:00:20.521Z,100933.50
2022-10-01T21:03:10.921Z,100933.63
2022-10-01T21:05:43.300Z,100941.75
2022-10-01T21:08:37.109Z,100942.59
2022-10-01T21:11:26.175Z,100934.59
2022-10-01T21:14:10.845Z,100938.03
2022-10-01T21:16:56.660Z,100945.19
2022-10-01T21:19:42.098Z,100943.44
2022-10-01T21:22:46.420Z,100942.22
2022-10-01T21:25:54.465Z,100948.16
2022-10-01T21:28:40.098Z,100957.03
2022-10-01T21:31:33.350Z,100951.88
2022-10-01T21:34:09.174Z,100954.31
2022-10-01T21:36:52.308Z,100958.78
2022-10-01T21:39:33.654Z,100958.28
2022-10-01T21:42:37.895Z,100961.00
2022-10-01T21:45:33.528Z,100965.44
2022-10-01T21:48:21.109Z,100966.94
2022-10-01T21:50:50.808Z,100968.69
2022-10-01T21:53:35.401Z,100978.19
2022-10-01T21:56:38.895Z,100981.75
2022-10-01T21:59:37.132Z,100981.50
2022-10-01T22:02:24.056Z,100987.91
2022-10-01T22:05:09.779Z,100982.47
2022-10-01T22:07:58.202Z,100986.19
2022-10-01T22:10:38.426Z,100990.84
2022-10-01T22:13:17.754Z,100993.56
2022-10-01T22:15:46.535Z,101002.47
2022-10-01T22:18:37.690Z,100993.56
2022-10-01T22:21:13.559Z,100995.53
2022-10-01T22:23:51.775Z,100998.25
2022-10-01T22:26:25.984Z,100997.50
2022-10-01T22:28:56.174Z,100997.50
2022-10-01T22:31:30.578Z,100999.25
2022-10-01T22:34:08.213Z,101001.22
2022-10-01T22:36:50.273Z,100997.63
2022-10-01T22:39:36.037Z,101014.88
2022-10-01T22:42:14.558Z,101012.28
2022-10-01T22:44:41.407Z,101001.66
2022-10-01T22:47:48.614Z,101008.94
2022-10-01T22:50:57.778Z,101011.03
2022-10-01T22:53:49.174Z,101016.94
2022-10-01T22:56:30.286Z,101015.41
2022-10-01T22:59:20.156Z,101017.38
2022-10-01T23:02:07.474Z,101017.38
2022-10-01T23:04:58.843Z,101019.44
2022-10-01T23:08:09.209Z,101019.59
2022-10-01T23:11:01.509Z,101031.28
2022-10-01T23:13:45.486Z,101029.31
2022-10-01T23:17:08.980Z,101028.22
2022-10-01T23:20:21.820Z,101029.59
2022-10-01T23:23:32.043Z,101027.50
2022-10-01T23:26:11.116Z,101034.69
2022-10-01T23:29:33.414Z,101028.88
2022-10-01T23:32:21.434Z,101033.34
2022-10-01T23:35:13.022Z,101037.66
2022-10-01T23:38:23.792Z,101073.91
2022-10-01T23:40:52.177Z,101095.38
2022-10-01T23:43:37.852Z,101083.81
2022-10-01T23:46:15.199Z,101081.59
2022-10-01T23:49:13.985Z,101083.84
2022-10-01T23:52:01.023Z,101079.13
2022-10-01T23:54:45.833Z,101082.09
2022-10-01T23:57:34.072Z,101076.19
